Wick, Iowa
Current Conditions -  °F | °C
As of 5:15 PM on Wednesday 22 Oct 2014 (Local Time) from KI75 Reporting Station
Scattered Clouds Scattered Clouds  
Wind Chill: 65°   Ceiling: Unl
Heat Index: 65°   Visibility: 10mi
Dew Point: 48°   Wind: 10mph
Humidity: 54%   Direction: 130°SE
Pressure: 30.1"   Gusts: 17mph
Location:  41.2933°N, 93.7977°W
Report Text: KI75 222215Z AUTO 13009G15KT 10SM SCT047 SCT075 19/09 A3010 RMK AO2 T01850090
Loading
Personal Weather Stations






























Interactive Weather Map New forecast layout! Learn more

10-Day Weather Forecast

Advertisements
Track Severe Weather on mobile